Timber, Oregon
Current Conditions -  °F | °C
As of 2:53 AM on Monday 22 Dec 2014 (Local Time) from KSPB Reporting Station
Overcast Overcast  
Wind Chill: 48°   Ceiling: 7000
Heat Index: 48°   Visibility: 10mi
Dew Point: 47°   Wind: 0mph
Humidity: 96%   Direction: NA
Pressure: 30.24"   Gusts: NA
Location:  45.72°N, 123.3°W
Report Text: KSPB 221053Z AUTO 00000KT 10SM FEW033 OVC070 09/08 A3024 RMK AO2 SLP238 T00890083
Loading
Personal Weather Stations






























Interactive Weather Map New forecast layout! Learn more

10-Day Weather Forecast

Advertisements
Track Severe Weather on mobile